sensor_id;sensor_type;location;lat;lon;timestamp;pressure;altitude;pressure_sealevel;temperature;humidity
80116;BME280;69423;47.608;19.366;2023-09-07T00:00:15;99668.22;;;15.27;77.55
80116;BME280;69423;47.608;19.366;2023-09-07T00:00:46;99666.53;;;15.26;77.18
80116;BME280;69423;47.608;19.366;2023-09-07T00:01:17;99670.03;;;15.27;77.99
80116;BME280;69423;47.608;19.366;2023-09-07T00:01:48;99666.94;;;15.23;77.72
80116;BME280;69423;47.608;19.366;2023-09-07T00:02:19;99664.25;;;15.23;77.01
80116;BME280;69423;47.608;19.366;2023-09-07T00:02:50;99679.34;;;15.24;77.71
80116;BME280;69423;47.608;19.366;2023-09-07T00:03:21;99672.09;;;15.25;77.66
80116;BME280;69423;47.608;19.366;2023-09-07T00:03:53;99669.41;;;15.25;77.47
80116;BME280;69423;47.608;19.366;2023-09-07T00:04:24;99674.16;;;15.23;77.58
80116;BME280;69423;47.608;19.366;2023-09-07T00:04:55;99666.72;;;15.25;77.28
80116;BME280;69423;47.608;19.366;2023-09-07T00:05:26;99667.59;;;15.25;76.99
80116;BME280;69423;47.608;19.366;2023-09-07T00:05:57;99669.63;;;15.23;77.79
80116;BME280;69423;47.608;19.366;2023-09-07T00:06:28;99676.84;;;15.23;78.14
80116;BME280;69423;47.608;19.366;2023-09-07T00:06:59;99667.78;;;15.24;77.99
80116;BME280;69423;47.608;19.366;2023-09-07T00:07:30;99674.56;;;15.20;78.01
80116;BME280;69423;47.608;19.366;2023-09-07T00:08:01;99670.84;;;15.21;77.43
80116;BME280;69423;47.608;19.366;2023-09-07T00:08:33;99666.09;;;15.23;77.97
80116;BME280;69423;47.608;19.366;2023-09-07T00:09:04;99659.53;;;15.25;77.77
80116;BME280;69423;47.608;19.366;2023-09-07T00:09:36;99669.81;;;15.22;77.97
80116;BME280;69423;47.608;19.366;2023-09-07T00:10:07;99673.34;;;15.22;77.44
80116;BME280;69423;47.608;19.366;2023-09-07T00:10:39;99664.44;;;15.22;77.45
80116;BME280;69423;47.608;19.366;2023-09-07T00:11:10;99668.59;;;15.24;77.38
80116;BME280;69423;47.608;19.366;2023-09-07T00:11:41;99663.66;;;15.28;77.32
80116;BME280;69423;47.608;19.366;2023-09-07T00:12:12;99660.56;;;15.31;77.72
80116;BME280;69423;47.608;19.366;2023-09-07T00:12:43;99663.06;;;15.32;77.05
80116;BME280;69423;47.608;19.366;2023-09-07T00:13:15;99666.81;;;15.31;77.53
80116;BME280;69423;47.608;19.366;2023-09-07T00:13:46;99666.59;;;15.33;77.85
80116;BME280;69423;47.608;19.366;2023-09-07T00:14:17;99667.63;;;15.32;77.81
80116;BME280;69423;47.608;19.366;2023-09-07T00:14:48;99658.34;;;15.34;78.04
80116;BME280;69423;47.608;19.366;2023-09-07T00:15:19;99667.84;;;15.37;77.59
80116;BME280;69423;47.608;19.366;2023-09-07T00:15:50;99669.53;;;15.38;77.59
80116;BME280;69423;47.608;19.366;2023-09-07T00:16:21;99671.38;;;15.37;77.66
80116;BME280;69423;47.608;19.366;2023-09-07T00:16:52;99665.78;;;15.39;76.92
80116;BME280;69423;47.608;19.366;2023-09-07T00:17:24;99663.31;;;15.37;77.67
80116;BME280;69423;47.608;19.366;2023-09-07T00:17:55;99666.84;;;15.38;77.53
80116;BME280;69423;47.608;19.366;2023-09-07T00:18:27;99667.84;;;15.37;77.46
80116;BME280;69423;47.608;19.366;2023-09-07T00:18:58;99666.19;;;15.36;77.71
80116;BME280;69423;47.608;19.366;2023-09-07T00:19:29;99671.13;;;15.32;77.66
80116;BME280;69423;47.608;19.366;2023-09-07T00:20:03;99661.84;;;15.35;77.80
80116;BME280;69423;47.608;19.366;2023-09-07T00:20:47;99658.34;;;15.34;78.67
80116;BME280;69423;47.608;19.366;2023-09-07T00:21:18;99661.22;;;15.33;78.64
80116;BME280;69423;47.608;19.366;2023-09-07T00:21:49;99669.06;;;15.34;78.54
80116;BME280;69423;47.608;19.366;2023-09-07T00:22:22;99663.09;;;15.39;78.63
80116;BME280;69423;47.608;19.366;2023-09-07T00:22:53;99663.31;;;15.37;77.50
80116;BME280;69423;47.608;19.366;2023-09-07T00:23:24;99661.22;;;15.33;78.21
80116;BME280;69423;47.608;19.366;2023-09-07T00:23:56;99667.44;;;15.33;78.04
80116;BME280;69423;47.608;19.366;2023-09-07T00:24:27;99668.25;;;15.34;78.10
80116;BME280;69423;47.608;19.366;2023-09-07T00:24:58;99663.69;;;15.34;78.36
80116;BME280;69423;47.608;19.366;2023-09-07T00:25:29;99658.09;;;15.29;78.02
80116;BME280;69423;47.608;19.366;2023-09-07T00:26:00;99660.38;;;15.32;78.18
80116;BME280;69423;47.608;19.366;2023-09-07T00:26:32;99664.13;;;15.31;78.20
80116;BME280;69423;47.608;19.366;2023-09-07T00:27:03;99656.25;;;15.30;78.08
80116;BME280;69423;47.608;19.366;2023-09-07T00:27:36;99661.63;;;15.30;77.88
80116;BME280;69423;47.608;19.366;2023-09-07T00:28:07;99663.66;;;15.28;78.39
80116;BME280;69423;47.608;19.366;2023-09-07T00:28:38;99658.94;;;15.30;78.00
80116;BME280;69423;47.608;19.366;2023-09-07T00:29:09;99661.63;;;15.30;78.41
80116;BME280;69423;47.608;19.366;2023-09-07T00:29:40;99656.25;;;15.30;77.36
80116;BME280;69423;47.608;19.366;2023-09-07T00:30:12;99658.47;;;15.26;77.75
80116;BME280;69423;47.608;19.366;2023-09-07T00:30:43;99663.22;;;15.24;78.05
80116;BME280;69423;47.608;19.366;2023-09-07T00:31:14;99657.41;;;15.21;78.29
80116;BME280;69423;47.608;19.366;2023-09-07T00:31:45;99658.25;;;15.21;78.75
80116;BME280;69423;47.608;19.366;2023-09-07T00:32:16;99657.03;;;15.24;78.37
80116;BME280;69423;47.608;19.366;2023-09-07T00:32:47;99657.66;;;15.26;77.88
80116;BME280;69423;47.608;19.366;2023-09-07T00:33:18;99646.28;;;15.24;78.40
80116;BME280;69423;47.608;19.366;2023-09-07T00:33:49;99648.97;;;15.24;78.24
80116;BME280;69423;47.608;19.366;2023-09-07T00:34:20;99657.84;;;15.24;78.86
80116;BME280;69423;47.608;19.366;2023-09-07T00:34:51;99656.38;;;15.22;78.39
80116;BME280;69423;47.608;19.366;2023-09-07T00:35:22;99658.03;;;15.23;78.25
80116;BME280;69423;47.608;19.366;2023-09-07T00:35:53;99657.03;;;15.24;78.34
80116;BME280;69423;47.608;19.366;2023-09-07T00:36:24;99662.41;;;15.24;77.83
80116;BME280;69423;47.608;19.366;2023-09-07T00:36:55;99654.72;;;15.21;77.72
80116;BME280;69423;47.608;19.366;2023-09-07T00:37:26;99658.44;;;15.20;78.32
80116;BME280;69423;47.608;19.366;2023-09-07T00:37:57;99660.31;;;15.19;77.60
80116;BME280;69423;47.608;19.366;2023-09-07T00:38:28;99655.50;;;15.14;77.31
80116;BME280;69423;47.608;19.366;2023-09-07T00:38:59;99657.53;;;15.12;77.36
80116;BME280;69423;47.608;19.366;2023-09-07T00:39:31;99660.00;;;15.07;77.90
80116;BME280;69423;47.608;19.366;2023-09-07T00:40:02;99653.16;;;15.05;77.76
80116;BME280;69423;47.608;19.366;2023-09-07T00:40:34;99658.53;;;15.05;77.84
80116;BME280;69423;47.608;19.366;2023-09-07T00:41:05;99648.44;;;15.07;77.71
80116;BME280;69423;47.608;19.366;2023-09-07T00:41:36;99657.94;;;15.09;77.93
80116;BME280;69423;47.608;19.366;2023-09-07T00:42:07;99651.13;;;15.07;78.07
80116;BME280;69423;47.608;19.366;2023-09-07T00:42:38;99651.94;;;15.07;78.25
80116;BME280;69423;47.608;19.366;2023-09-07T00:43:09;99662.44;;;15.02;77.71
80116;BME280;69423;47.608;19.366;2023-09-07T00:43:40;99655.22;;;15.03;77.12
80116;BME280;69423;47.608;19.366;2023-09-07T00:44:11;99653.75;;;15.00;77.13
80116;BME280;69423;47.608;19.366;2023-09-07T00:44:42;99656.44;;;15.00;77.64
80116;BME280;69423;47.608;19.366;2023-09-07T00:45:14;99653.94;;;14.98;77.52
80116;BME280;69423;47.608;19.366;2023-09-07T00:45:45;99659.50;;;14.97;77.66
80116;BME280;69423;47.608;19.366;2023-09-07T00:46:16;99655.16;;;14.96;77.71
80116;BME280;69423;47.608;19.366;2023-09-07T00:46:47;99655.72;;;14.91;77.66
80116;BME280;69423;47.608;19.366;2023-09-07T00:47:18;99653.91;;;14.92;77.06
80116;BME280;69423;47.608;19.366;2023-09-07T00:47:49;99656.59;;;14.92;77.42
80116;BME280;69423;47.608;19.366;2023-09-07T00:48:21;99656.94;;;14.89;77.82
80116;BME280;69423;47.608;19.366;2023-09-07T00:48:52;99660.69;;;14.88;77.78
80116;BME280;69423;47.608;19.366;2023-09-07T00:49:24;99655.94;;;14.90;77.86
80116;BME280;69423;47.608;19.366;2023-09-07T00:49:56;99656.59;;;14.92;77.81
80116;BME280;69423;47.608;19.366;2023-09-07T00:50:29;99650.56;;;14.90;77.67
80116;BME280;69423;47.608;19.366;2023-09-07T00:51:00;99659.63;;;14.89;78.37
80116;BME280;69423;47.608;19.366;2023-09-07T00:51:32;99655.94;;;14.90;77.64
80116;BME280;69423;47.608;19.366;2023-09-07T00:52:05;99651.41;;;14.90;78.46
80116;BME280;69423;47.608;19.366;2023-09-07T00:52:37;99652.22;;;14.91;77.71
80116;BME280;69423;47.608;19.366;2023-09-07T00:53:11;99648.31;;;14.93;77.76
80116;BME280;69423;47.608;19.366;2023-09-07T00:53:42;99647.13;;;14.96;77.86
80116;BME280;69423;47.608;19.366;2023-09-07T00:54:14;99651.84;;;14.94;78.27
80116;BME280;69423;47.608;19.366;2023-09-07T00:54:45;99648.53;;;14.92;77.88
80116;BME280;69423;47.608;19.366;2023-09-07T00:55:16;99650.56;;;14.90;77.25
80116;BME280;69423;47.608;19.366;2023-09-07T00:55:47;99652.63;;;14.88;77.07
80116;BME280;69423;47.608;19.366;2023-09-07T00:56:19;99652.81;;;14.86;76.94
80116;BME280;69423;47.608;19.366;2023-09-07T00:56:50;99663.09;;;14.83;77.23
80116;BME280;69423;47.608;19.366;2023-09-07T00:57:21;99648.41;;;14.78;77.27
80116;BME280;69423;47.608;19.366;2023-09-07T00:57:52;99654.53;;;14.72;77.30
80116;BME280;69423;47.608;19.366;2023-09-07T00:58:23;99653.53;;;14.73;77.93
80116;BME280;69423;47.608;19.366;2023-09-07T00:58:55;99656.56;;;14.70;77.38
80116;BME280;69423;47.608;19.366;2023-09-07T00:59:27;99649.13;;;14.66;77.81
80116;BME280;69423;47.608;19.366;2023-09-07T00:59:58;99652.38;;;14.61;77.78
80116;BME280;69423;47.608;19.366;2023-09-07T01:00:29;99652.38;;;14.61;78.37
80116;BME280;69423;47.608;19.366;2023-09-07T01:01:00;99651.09;;;14.57;78.10
80116;BME280;69423;47.608;19.366;2023-09-07T01:01:32;99655.16;;;14.53;78.99
80116;BME280;69423;47.608;19.366;2023-09-07T01:02:04;99651.38;;;14.47;78.48
80116;BME280;69423;47.608;19.366;2023-09-07T01:02:36;99649.91;;;14.45;78.97
80116;BME280;69423;47.608;19.366;2023-09-07T01:03:07;99647.22;;;14.45;78.48
80116;BME280;69423;47.608;19.366;2023-09-07T01:03:39;99653.00;;;14.42;78.65
80116;BME280;69423;47.608;19.366;2023-09-07T01:04:10;99653.34;;;14.38;79.01
80116;BME280;69423;47.608;19.366;2023-09-07T01:04:42;99653.34;;;14.38;79.05
80116;BME280;69423;47.608;19.366;2023-09-07T01:05:13;99652.06;;;14.34;79.06
80116;BME280;69423;47.608;19.366;2023-09-07T01:05:52;99646.00;;;14.26;79.93
80116;BME280;69423;47.608;19.366;2023-09-07T01:06:30;99649.38;;;14.13;79.90
80116;BME280;69423;47.608;19.366;2023-09-07T01:07:20;99650.19;;;14.13;80.44
80116;BME280;69423;47.608;19.366;2023-09-07T01:07:56;99657.41;;;14.13;80.14
80116;BME280;69423;47.608;19.366;2023-09-07T01:08:35;99648.53;;;14.12;80.38
80116;BME280;69423;47.608;19.366;2023-09-07T01:09:11;99653.81;;;14.06;80.27
80116;BME280;69423;47.608;19.366;2023-09-07T01:09:49;99657.13;;;14.08;80.72
80116;BME280;69423;47.608;19.366;2023-09-07T01:10:22;99656.13;;;14.09;79.79
80116;BME280;69423;47.608;19.366;2023-09-07T01:10:53;99648.44;;;14.06;80.56
80116;BME280;69423;47.608;19.366;2023-09-07T01:11:24;99655.84;;;14.04;80.99
80116;BME280;69423;47.608;19.366;2023-09-07T01:11:55;99653.81;;;14.06;80.67
80116;BME280;69423;47.608;19.366;2023-09-07T01:12:26;99653.81;;;14.06;81.09
80116;BME280;69423;47.608;19.366;2023-09-07T01:12:58;99653.81;;;14.06;80.22
80116;BME280;69423;47.608;19.366;2023-09-07T01:13:29;99647.44;;;14.07;80.35
80116;BME280;69423;47.608;19.366;2023-09-07T01:14:00;99648.44;;;14.06;80.27
80116;BME280;69423;47.608;19.366;2023-09-07T01:14:31;99649.09;;;14.08;80.61
80116;BME280;69423;47.608;19.366;2023-09-07T01:15:02;99650.13;;;14.07;81.00
80116;BME280;69423;47.608;19.366;2023-09-07T01:15:37;99650.50;;;14.04;80.82
80116;BME280;69423;47.608;19.366;2023-09-07T01:16:12;99652.16;;;14.05;81.08
80116;BME280;69423;47.608;19.366;2023-09-07T01:16:43;99654.19;;;14.03;81.44
80116;BME280;69423;47.608;19.366;2023-09-07T01:17:15;99645.34;;;14.02;81.33
80116;BME280;69423;47.608;19.366;2023-09-07T01:17:47;99654.19;;;14.03;81.13
80116;BME280;69423;47.608;19.366;2023-09-07T01:18:19;99655.84;;;14.04;81.16
80116;BME280;69423;47.608;19.366;2023-09-07T01:18:51;99650.69;;;14.02;81.30
80116;BME280;69423;47.608;19.366;2023-09-07T01:19:22;99651.78;;;14.08;80.87
80116;BME280;69423;47.608;19.366;2023-09-07T01:19:54;99645.41;;;14.09;80.38
80116;BME280;69423;47.608;19.366;2023-09-07T01:20:29;99652.41;;;14.10;80.59
80116;BME280;69423;47.608;19.366;2023-09-07T01:21:01;99649.72;;;14.10;81.14
80116;BME280;69423;47.608;19.366;2023-09-07T01:21:38;99648.09;;;14.09;81.33
80116;BME280;69423;47.608;19.366;2023-09-07T01:22:10;99661.84;;;14.06;81.79
80116;BME280;69423;47.608;19.366;2023-09-07T01:22:43;99654.44;;;14.08;80.98
80116;BME280;69423;47.608;19.366;2023-09-07T01:23:14;99659.81;;;14.08;80.89
80116;BME280;69423;47.608;19.366;2023-09-07T01:23:47;99655.94;;;14.10;81.42
80116;BME280;69423;47.608;19.366;2023-09-07T01:24:19;99661.09;;;14.12;80.59
80116;BME280;69423;47.608;19.366;2023-09-07T01:24:52;99650.38;;;14.12;80.90
80116;BME280;69423;47.608;19.366;2023-09-07T01:25:23;99657.59;;;14.11;80.68
80116;BME280;69423;47.608;19.366;2023-09-07T01:25:55;99656.56;;;14.12;80.75
80116;BME280;69423;47.608;19.366;2023-09-07T01:26:26;99653.06;;;14.12;81.25
80116;BME280;69423;47.608;19.366;2023-09-07T01:26:58;99658.41;;;14.12;80.78
80116;BME280;69423;47.608;19.366;2023-09-07T01:27:29;99649.72;;;14.10;81.49
80116;BME280;69423;47.608;19.366;2023-09-07T01:28:01;99657.78;;;14.10;81.76
80116;BME280;69423;47.608;19.366;2023-09-07T01:28:32;99654.75;;;14.13;81.19
80116;BME280;69423;47.608;19.366;2023-09-07T01:29:03;99654.09;;;14.11;81.52
80116;BME280;69423;47.608;19.366;2023-09-07T01:29:34;99658.63;;;14.10;81.01
80116;BME280;69423;47.608;19.366;2023-09-07T01:30:08;99653.81;;;14.06;81.53
80116;BME280;69423;47.608;19.366;2023-09-07T01:30:40;99656.50;;;14.06;80.76
80116;BME280;69423;47.608;19.366;2023-09-07T01:31:11;99653.16;;;14.04;81.73
80116;BME280;69423;47.608;19.366;2023-09-07T01:31:42;99655.19;;;14.02;80.90
80116;BME280;69423;47.608;19.366;2023-09-07T01:32:13;99658.28;;;13.99;81.34
80116;BME280;69423;47.608;19.366;2023-09-07T01:32:44;99663.47;;;14.00;81.22
80116;BME280;69423;47.608;19.366;2023-09-07T01:33:15;99654.38;;;14.01;81.53
80116;BME280;69423;47.608;19.366;2023-09-07T01:33:46;99652.53;;;14.02;81.45
80116;BME280;69423;47.608;19.366;2023-09-07T01:34:17;99653.56;;;14.01;80.74
80116;BME280;69423;47.608;19.366;2023-09-07T01:34:48;99651.88;;;14.00;80.77
80116;BME280;69423;47.608;19.366;2023-09-07T01:35:20;99652.44;;;13.95;80.93
80116;BME280;69423;47.608;19.366;2023-09-07T01:35:52;99654.66;;;13.91;81.44
80116;BME280;69423;47.608;19.366;2023-09-07T01:36:23;99652.38;;;13.88;81.58
80116;BME280;69423;47.608;19.366;2023-09-07T01:36:54;99656.69;;;13.89;81.19
80116;BME280;69423;47.608;19.366;2023-09-07T01:37:25;99657.34;;;13.91;81.27
80116;BME280;69423;47.608;19.366;2023-09-07T01:37:56;99652.44;;;13.95;81.69
80116;BME280;69423;47.608;19.366;2023-09-07T01:38:27;99657.63;;;13.96;81.26
80116;BME280;69423;47.608;19.366;2023-09-07T01:38:58;99650.59;;;13.95;81.21
80116;BME280;69423;47.608;19.366;2023-09-07T01:39:29;99653.66;;;13.92;81.06
80116;BME280;69423;47.608;19.366;2023-09-07T01:40:00;99656.16;;;13.94;81.93
80116;BME280;69423;47.608;19.366;2023-09-07T01:40:31;99653.66;;;13.92;82.00
80116;BME280;69423;47.608;19.366;2023-09-07T01:41:02;99660.03;;;13.91;81.82
80116;BME280;69423;47.608;19.366;2023-09-07T01:41:34;99659.03;;;13.92;81.17
80116;BME280;69423;47.608;19.366;2023-09-07T01:42:05;99661.53;;;13.94;81.64
80116;BME280;69423;47.608;19.366;2023-09-07T01:42:36;99659.84;;;13.93;81.40
80116;BME280;69423;47.608;19.366;2023-09-07T01:43:07;99656.16;;;13.94;81.98
80116;BME280;69423;47.608;19.366;2023-09-07T01:43:38;99649.94;;;13.93;81.62
80116;BME280;69423;47.608;19.366;2023-09-07T01:44:09;99658.00;;;13.93;81.60
80116;BME280;69423;47.608;19.366;2023-09-07T01:44:40;99657.00;;;13.94;81.95
80116;BME280;69423;47.608;19.366;2023-09-07T01:45:11;99655.69;;;13.90;81.27
80116;BME280;69423;47.608;19.366;2023-09-07T01:45:42;99651.16;;;13.91;80.76
80116;BME280;69423;47.608;19.366;2023-09-07T01:46:13;99646.63;;;13.91;81.50
80116;BME280;69423;47.608;19.366;2023-09-07T01:46:44;99657.34;;;13.91;80.85
80116;BME280;69423;47.608;19.366;2023-09-07T01:47:15;99653.03;;;13.90;81.01
80116;BME280;69423;47.608;19.366;2023-09-07T01:47:47;99657.34;;;13.91;81.14
80116;BME280;69423;47.608;19.366;2023-09-07T01:48:18;99654.50;;;13.93;81.78
80116;BME280;69423;47.608;19.366;2023-09-07T01:48:49;99651.63;;;13.94;82.13
80116;BME280;69423;47.608;19.366;2023-09-07T01:49:20;99652.44;;;13.95;81.96
80116;BME280;69423;47.608;19.366;2023-09-07T01:49:51;99649.59;;;13.96;81.81
80116;BME280;69423;47.608;19.366;2023-09-07T01:50:22;99660.31;;;13.96;81.46
80116;BME280;69423;47.608;19.366;2023-09-07T01:50:53;99654.13;;;13.96;81.50
80116;BME280;69423;47.608;19.366;2023-09-07T01:51:24;99663.19;;;13.95;81.87
80116;BME280;69423;47.608;19.366;2023-09-07T01:51:58;99654.66;;;13.91;82.21
80116;BME280;69423;47.608;19.366;2023-09-07T01:52:29;99655.53;;;13.92;82.30
80116;BME280;69423;47.608;19.366;2023-09-07T01:53:02;99661.06;;;13.90;82.15
80116;BME280;69423;47.608;19.366;2023-09-07T01:53:35;99663.09;;;13.88;81.82
80116;BME280;69423;47.608;19.366;2023-09-07T01:54:06;99658.75;;;13.87;81.67
80116;BME280;69423;47.608;19.366;2023-09-07T01:54:37;99660.59;;;13.87;82.26
80116;BME280;69423;47.608;19.366;2023-09-07T01:55:08;99662.44;;;13.86;82.07
80116;BME280;69423;47.608;19.366;2023-09-07T01:55:39;99662.28;;;13.88;81.32
80116;BME280;69423;47.608;19.366;2023-09-07T01:56:10;99670.50;;;13.86;81.44
80116;BME280;69423;47.608;19.366;2023-09-07T01:56:41;99663.47;;;13.85;81.55
80116;BME280;69423;47.608;19.366;2023-09-07T01:57:12;99663.47;;;13.85;81.89
80116;BME280;69423;47.608;19.366;2023-09-07T01:57:43;99659.94;;;13.85;81.39
80116;BME280;69423;47.608;19.366;2023-09-07T01:58:14;99664.84;;;13.81;81.52
80116;BME280;69423;47.608;19.366;2023-09-07T01:58:46;99662.16;;;13.81;82.01
80116;BME280;69423;47.608;19.366;2023-09-07T01:59:17;99664.09;;;13.87;81.37
80116;BME280;69423;47.608;19.366;2023-09-07T01:59:48;99670.50;;;13.86;81.19
80116;BME280;69423;47.608;19.366;2023-09-07T02:00:19;99661.97;;;13.83;81.44
80116;BME280;69423;47.608;19.366;2023-09-07T02:00:50;99664.66;;;13.83;81.71
80116;BME280;69423;47.608;19.366;2023-09-07T02:01:25;99661.97;;;13.83;82.16
80116;BME280;69423;47.608;19.366;2023-09-07T02:01:56;99651.09;;;13.84;81.71
80116;BME280;69423;47.608;19.366;2023-09-07T02:02:27;99668.81;;;13.85;82.04
80116;BME280;69423;47.608;19.366;2023-09-07T02:02:58;99658.75;;;13.87;81.70
80116;BME280;69423;47.608;19.366;2023-09-07T02:03:29;99656.69;;;13.89;81.39
80116;BME280;69423;47.608;19.366;2023-09-07T02:04:01;99664.75;;;13.89;82.07
80116;BME280;69423;47.608;19.366;2023-09-07T02:04:32;99658.09;;;13.85;81.44
80116;BME280;69423;47.608;19.366;2023-09-07T02:05:03;99665.97;;;13.87;81.48
80116;BME280;69423;47.608;19.366;2023-09-07T02:05:34;99666.13;;;13.85;81.46
80116;BME280;69423;47.608;19.366;2023-09-07T02:06:05;99663.28;;;13.87;81.06
80116;BME280;69423;47.608;19.366;2023-09-07T02:06:37;99659.78;;;13.86;81.19
80116;BME280;69423;47.608;19.366;2023-09-07T02:07:08;99659.59;;;13.88;81.23
80116;BME280;69423;47.608;19.366;2023-09-07T02:07:39;99669.66;;;13.86;81.28
80116;BME280;69423;47.608;19.366;2023-09-07T02:08:10;99663.47;;;13.85;81.25
80116;BME280;69423;47.608;19.366;2023-09-07T02:08:41;99661.81;;;13.84;81.18
80116;BME280;69423;47.608;19.366;2023-09-07T02:09:12;99656.44;;;13.84;82.01
80116;BME280;69423;47.608;19.366;2023-09-07T02:09:43;99661.81;;;13.84;81.19
80116;BME280;69423;47.608;19.366;2023-09-07T02:10:14;99656.44;;;13.84;82.12
80116;BME280;69423;47.608;19.366;2023-09-07T02:10:46;99652.28;;;13.82;82.26
80116;BME280;69423;47.608;19.366;2023-09-07T02:11:17;99661.81;;;13.84;81.77
80116;BME280;69423;47.608;19.366;2023-09-07T02:11:48;99657.66;;;13.82;80.97
80116;BME280;69423;47.608;19.366;2023-09-07T02:12:19;99654.34;;;13.80;80.99
80116;BME280;69423;47.608;19.366;2023-09-07T02:12:50;99643.78;;;13.78;81.62
80116;BME280;69423;47.608;19.366;2023-09-07T02:13:21;99653.13;;;13.82;82.27
80116;BME280;69423;47.608;19.366;2023-09-07T02:13:52;99655.41;;;13.85;81.06
80116;BME280;69423;47.608;19.366;2023-09-07T02:14:23;99648.22;;;13.86;81.56
80116;BME280;69423;47.608;19.366;2023-09-07T02:14:55;99652.72;;;13.85;81.01
80116;BME280;69423;47.608;19.366;2023-09-07T02:15:26;99653.75;;;13.84;81.94
80116;BME280;69423;47.608;19.366;2023-09-07T02:15:57;99657.28;;;13.85;81.12
80116;BME280;69423;47.608;19.366;2023-09-07T02:16:28;99652.38;;;13.88;81.77
80116;BME280;69423;47.608;19.366;2023-09-07T02:16:59;99649.69;;;13.88;81.28
80116;BME280;69423;47.608;19.366;2023-09-07T02:17:30;99658.75;;;13.87;81.65
80116;BME280;69423;47.608;19.366;2023-09-07T02:18:01;99648.66;;;13.89;82.03
80116;BME280;69423;47.608;19.366;2023-09-07T02:18:36;99653.38;;;13.87;82.31
80116;BME280;69423;47.608;19.366;2023-09-07T02:19:09;99655.69;;;13.90;82.21
80116;BME280;69423;47.608;19.366;2023-09-07T02:19:41;99663.75;;;13.90;82.32
80116;BME280;69423;47.608;19.366;2023-09-07T02:20:12;99654.88;;;13.90;82.45
80116;BME280;69423;47.608;19.366;2023-09-07T02:20:43;99655.69;;;13.90;82.19
80116;BME280;69423;47.608;19.366;2023-09-07T02:21:14;99661.25;;;13.89;81.06
80116;BME280;69423;47.608;19.366;2023-09-07T02:21:46;99655.63;;;13.84;81.46
80116;BME280;69423;47.608;19.366;2023-09-07T02:22:17;99659.13;;;13.84;81.22
80116;BME280;69423;47.608;19.366;2023-09-07T02:22:48;99656.44;;;13.84;81.32
80116;BME280;69423;47.608;19.366;2023-09-07T02:23:19;99662.56;;;13.78;81.35
80116;BME280;69423;47.608;19.366;2023-09-07T02:23:50;99659.63;;;13.73;81.69
80116;BME280;69423;47.608;19.366;2023-09-07T02:24:21;99653.97;;;13.68;82.19
80116;BME280;69423;47.608;19.366;2023-09-07T02:24:52;99663.47;;;13.70;81.47
80116;BME280;69423;47.608;19.366;2023-09-07T02:25:23;99658.75;;;13.72;81.24
80116;BME280;69423;47.608;19.366;2023-09-07T02:25:54;99658.75;;;13.72;80.79
80116;BME280;69423;47.608;19.366;2023-09-07T02:26:26;99649.91;;;13.72;81.44
80116;BME280;69423;47.608;19.366;2023-09-07T02:26:57;99667.84;;;13.71;81.44
80116;BME280;69423;47.608;19.366;2023-09-07T02:27:28;99662.00;;;13.68;82.02
80116;BME280;69423;47.608;19.366;2023-09-07T02:27:59;99670.69;;;13.70;82.03
80116;BME280;69423;47.608;19.366;2023-09-07T02:28:30;99649.25;;;13.70;82.05
80116;BME280;69423;47.608;19.366;2023-09-07T02:29:01;99657.47;;;13.68;81.31
80116;BME280;69423;47.608;19.366;2023-09-07T02:29:36;99652.31;;;13.67;82.12
80116;BME280;69423;47.608;19.366;2023-09-07T02:30:08;99668.19;;;13.68;81.52
80116;BME280;69423;47.608;19.366;2023-09-07T02:30:39;99662.81;;;13.68;81.60
80116;BME280;69423;47.608;19.366;2023-09-07T02:31:10;99664.31;;;13.71;81.80
80116;BME280;69423;47.608;19.366;2023-09-07T02:31:42;99665.31;;;13.70;81.38
80116;BME280;69423;47.608;19.366;2023-09-07T02:32:13;99656.66;;;13.68;81.08
80116;BME280;69423;47.608;19.366;2023-09-07T02:32:44;99662.81;;;13.68;81.77
80116;BME280;69423;47.608;19.366;2023-09-07T02:33:15;99658.50;;;13.67;81.57
80116;BME280;69423;47.608;19.366;2023-09-07T02:33:46;99650.81;;;13.64;81.41
80116;BME280;69423;47.608;19.366;2023-09-07T02:34:17;99662.38;;;13.65;81.35
80116;BME280;69423;47.608;19.366;2023-09-07T02:34:48;99645.66;;;13.63;81.46
80116;BME280;69423;47.608;19.366;2023-09-07T02:35:19;99658.41;;;13.61;81.36
80116;BME280;69423;47.608;19.366;2023-09-07T02:35:50;99642.97;;;13.63;81.35
80116;BME280;69423;47.608;19.366;2023-09-07T02:36:21;99664.41;;;13.63;80.94
80116;BME280;69423;47.608;19.366;2023-09-07T02:36:52;99662.56;;;13.63;80.98
80116;BME280;69423;47.608;19.366;2023-09-07T02:37:23;99657.56;;;13.60;80.97
80116;BME280;69423;47.608;19.366;2023-09-07T02:37:54;99661.91;;;13.61;81.22
80116;BME280;69423;47.608;19.366;2023-09-07T02:38:25;99662.09;;;13.60;81.19
80116;BME280;69423;47.608;19.366;2023-09-07T02:38:56;99662.75;;;13.62;81.66
80116;BME280;69423;47.608;19.366;2023-09-07T02:39:27;99658.22;;;13.62;80.93
80116;BME280;69423;47.608;19.366;2023-09-07T02:39:58;99661.75;;;13.63;81.97
80116;BME280;69423;47.608;19.366;2023-09-07T02:40:29;99654.53;;;13.63;81.39
80116;BME280;69423;47.608;19.366;2023-09-07T02:41:00;99652.03;;;13.62;82.02
80116;BME280;69423;47.608;19.366;2023-09-07T02:41:33;99660.88;;;13.62;81.66
80116;BME280;69423;47.608;19.366;2023-09-07T02:42:04;99651.66;;;13.65;81.02
80116;BME280;69423;47.608;19.366;2023-09-07T02:42:35;99657.38;;;13.62;82.16
80116;BME280;69423;47.608;19.366;2023-09-07T02:43:06;99659.41;;;13.60;82.07
80116;BME280;69423;47.608;19.366;2023-09-07T02:43:37;99665.59;;;13.60;81.89
80116;BME280;69423;47.608;19.366;2023-09-07T02:44:08;99655.75;;;13.61;82.12
80116;BME280;69423;47.608;19.366;2023-09-07T02:44:39;99658.41;;;13.61;82.97
80116;BME280;69423;47.608;19.366;2023-09-07T02:45:11;99662.75;;;13.62;82.75